createdAt,value
2017-08-14T00:00:48.952Z,1010
2017-08-14T00:01:56.450Z,1011
2017-08-14T00:03:03.931Z,1011
2017-08-14T00:04:11.407Z,1011
2017-08-14T00:05:19.186Z,1010
2017-08-14T00:06:26.669Z,1010
2017-08-14T00:07:34.151Z,1010
2017-08-14T00:08:41.311Z,1010
2017-08-14T00:09:48.788Z,1011
2017-08-14T00:10:56.575Z,1010
2017-08-14T00:12:04.061Z,1010
2017-08-14T00:13:11.540Z,1010
2017-08-14T00:14:18.701Z,1010
2017-08-14T00:15:25.847Z,1010
2017-08-14T00:16:33.633Z,1010
2017-08-14T00:17:41.116Z,1010
2017-08-14T00:18:48.829Z,1011
2017-08-14T00:19:57.554Z,1010
2017-08-14T00:21:05.029Z,1010
2017-08-14T00:22:12.806Z,1010
2017-08-14T00:23:19.955Z,1010
2017-08-14T00:24:27.440Z,1010
2017-08-14T00:25:34.920Z,1010
2017-08-14T00:26:42.401Z,1010
2017-08-14T00:27:50.208Z,1010
2017-08-14T00:28:57.689Z,1010
2017-08-14T00:30:04.836Z,1009
2017-08-14T00:31:11.986Z,1010
2017-08-14T00:32:19.474Z,1010
2017-08-14T00:33:27.259Z,1010
2017-08-14T00:34:34.767Z,1010
2017-08-14T00:35:43.099Z,1010
2017-08-14T00:36:50.574Z,1010
2017-08-14T00:37:57.738Z,1009
2017-08-14T00:39:05.520Z,1009
2017-08-14T00:40:12.996Z,1010
2017-08-14T00:41:20.143Z,1010
2017-08-14T00:42:27.294Z,1009
2017-08-14T00:43:34.784Z,1010
2017-08-14T00:44:42.565Z,1009
2017-08-14T00:45:49.712Z,1009
2017-08-14T00:46:57.191Z,1010
2017-08-14T00:48:04.340Z,1009
2017-08-14T00:49:11.821Z,1009
2017-08-14T00:50:19.273Z,1009
2017-08-14T00:51:26.759Z,1010
2017-08-14T00:52:33.909Z,1009
2017-08-14T00:53:41.388Z,1009
2017-08-14T00:54:48.871Z,1010
2017-08-14T00:56:02.625Z,1009
2017-08-14T00:57:09.778Z,1009
2017-08-14T00:58:17.459Z,1008
2017-08-14T00:59:24.938Z,1008
2017-08-14T01:00:32.424Z,1008
2017-08-14T01:01:40.208Z,1008
2017-08-14T01:02:47.689Z,1007
2017-08-14T01:03:55.173Z,1007
2017-08-14T01:05:02.879Z,1007
2017-08-14T01:06:10.364Z,1007
2017-08-14T01:07:18.151Z,1007
2017-08-14T01:08:25.293Z,1007
2017-08-14T01:09:32.772Z,1006
2017-08-14T01:10:40.254Z,1006
2017-08-14T01:11:47.753Z,1006
2017-08-14T01:12:55.532Z,1006
2017-08-14T01:14:03.026Z,1006
2017-08-14T01:15:10.513Z,1006
2017-08-14T01:16:17.992Z,1005
2017-08-14T01:17:25.470Z,1005
2017-08-14T01:18:32.877Z,1005
2017-08-14T01:19:40.358Z,1005
2017-08-14T01:20:47.852Z,1006
2017-08-14T01:21:55.335Z,1006
2017-08-14T01:23:02.816Z,1005
2017-08-14T01:24:10.276Z,1005
2017-08-14T01:25:17.747Z,1006
2017-08-14T01:26:25.230Z,1005
2017-08-14T01:27:32.707Z,1004
2017-08-14T01:28:39.854Z,1004
2017-08-14T01:29:47.686Z,1004
2017-08-14T01:30:55.345Z,1004
2017-08-14T01:32:02.494Z,1004
2017-08-14T01:33:10.210Z,1004
2017-08-14T01:34:17.684Z,1003
2017-08-14T01:35:25.461Z,1003
2017-08-14T01:36:32.936Z,1003
2017-08-14T01:37:40.420Z,1004
2017-08-14T01:38:47.919Z,1004
2017-08-14T01:39:55.401Z,1003
2017-08-14T01:41:02.859Z,1004
2017-08-14T01:42:10.343Z,1004
2017-08-14T01:43:17.819Z,1004
2017-08-14T01:44:24.973Z,1004
2017-08-14T01:45:32.447Z,1003
2017-08-14T01:46:40.230Z,1002
2017-08-14T01:47:47.706Z,1003
2017-08-14T01:48:55.186Z,1003
2017-08-14T01:50:02.672Z,1003
2017-08-14T01:51:10.151Z,1003
2017-08-14T01:52:17.938Z,1003
2017-08-14T01:53:25.434Z,1003
2017-08-14T01:54:32.927Z,1004
2017-08-14T01:55:40.411Z,1003
2017-08-14T01:56:47.893Z,1004
2017-08-14T01:57:55.000Z,1003
2017-08-14T01:59:02.479Z,1004
2017-08-14T02:00:09.636Z,1004
2017-08-14T02:01:17.116Z,1003
2017-08-14T02:02:24.601Z,1004
2017-08-14T02:03:32.377Z,1004
2017-08-14T02:04:39.851Z,1003
2017-08-14T02:05:47.333Z,1003
2017-08-14T02:06:54.818Z,1004
2017-08-14T02:08:02.313Z,1003
2017-08-14T02:09:09.784Z,1004
2017-08-14T02:10:17.269Z,1003
2017-08-14T02:11:24.436Z,1003
2017-08-14T02:12:31.916Z,1003
2017-08-14T02:13:39.058Z,1004
2017-08-14T02:14:46.179Z,1004
2017-08-14T02:15:53.657Z,1003
2017-08-14T02:17:01.152Z,1003
2017-08-14T02:18:08.631Z,1003
2017-08-14T02:19:16.113Z,1004
2017-08-14T02:20:23.892Z,1003
2017-08-14T02:21:31.043Z,1004
2017-08-14T02:22:37.864Z,1004
2017-08-14T02:23:45.010Z,1004
2017-08-14T02:24:52.506Z,1005
2017-08-14T02:26:00.285Z,1004
2017-08-14T02:27:07.769Z,1004
2017-08-14T02:28:29.240Z,1003
2017-08-14T02:29:36.721Z,1004
2017-08-14T02:30:44.203Z,1004
2017-08-14T02:31:51.988Z,1004
2017-08-14T02:32:59.465Z,1005
2017-08-14T02:34:06.290Z,1005
2017-08-14T02:35:13.771Z,1005
2017-08-14T02:36:21.257Z,1004
2017-08-14T02:37:29.035Z,1005
2017-08-14T02:38:36.515Z,1005
2017-08-14T02:39:43.996Z,1005
2017-08-14T02:40:51.479Z,1005
2017-08-14T02:41:58.960Z,1005
2017-08-14T02:43:06.411Z,1006
2017-08-14T02:44:13.886Z,1006
2017-08-14T02:45:21.033Z,1007
2017-08-14T02:46:43.091Z,1006
2017-08-14T02:47:50.230Z,1006
2017-08-14T02:48:57.683Z,1006
2017-08-14T02:50:05.166Z,1006
2017-08-14T02:51:12.656Z,1006
2017-08-14T02:52:20.131Z,1006
2017-08-14T02:53:27.276Z,1006
2017-08-14T02:54:35.060Z,1006
2017-08-14T02:55:42.543Z,1006
2017-08-14T02:56:50.024Z,1006
2017-08-14T02:57:57.510Z,1006
2017-08-14T02:59:04.994Z,1006
2017-08-14T03:00:12.775Z,1005
2017-08-14T03:01:19.924Z,1005
2017-08-14T03:02:27.437Z,1005
2017-08-14T03:03:34.933Z,1005
2017-08-14T03:04:42.413Z,1004
2017-08-14T03:05:50.195Z,1004
2017-08-14T03:06:57.671Z,1004
2017-08-14T03:08:05.151Z,1004
2017-08-14T03:09:12.306Z,1004
2017-08-14T03:10:19.784Z,1004
2017-08-14T03:11:27.239Z,1005
2017-08-14T03:12:34.723Z,1004
2017-08-14T03:13:41.882Z,1004
2017-08-14T03:14:49.371Z,1004
2017-08-14T03:15:56.846Z,1004
2017-08-14T03:17:04.644Z,1005
2017-08-14T03:18:11.793Z,1004
2017-08-14T03:19:19.289Z,1005
2017-08-14T03:20:26.774Z,1004
2017-08-14T03:21:34.249Z,1004
2017-08-14T03:22:42.029Z,1004
2017-08-14T03:23:49.508Z,1004
2017-08-14T03:24:56.985Z,1004
2017-08-14T03:26:04.460Z,1003
2017-08-14T03:27:11.944Z,1004
2017-08-14T03:28:19.725Z,1003
2017-08-14T03:29:26.882Z,1003
2017-08-14T03:30:34.362Z,1003
2017-08-14T03:31:41.842Z,1003
2017-08-14T03:32:49.319Z,1003
2017-08-14T03:33:57.097Z,1003
2017-08-14T03:35:04.573Z,1002
2017-08-14T03:36:12.064Z,1003
2017-08-14T03:37:19.539Z,1002
2017-08-14T03:38:27.039Z,1002
2017-08-14T03:39:34.527Z,1002
2017-08-14T03:40:42.014Z,1002
2017-08-14T03:41:49.495Z,1002
2017-08-14T03:42:56.978Z,1002
2017-08-14T03:44:04.463Z,1002
2017-08-14T03:45:12.236Z,1001
2017-08-14T03:46:19.717Z,1002
2017-08-14T03:47:27.193Z,1002
2017-08-14T03:48:34.349Z,1002
2017-08-14T03:49:41.501Z,1001
2017-08-14T03:50:49.276Z,1001
2017-08-14T03:51:56.754Z,1002
2017-08-14T03:53:04.229Z,1002
2017-08-14T03:54:11.376Z,1002
2017-08-14T03:55:18.851Z,1001
2017-08-14T03:56:26.309Z,1002
2017-08-14T03:57:33.779Z,1002
2017-08-14T03:58:41.259Z,1002
2017-08-14T03:59:48.751Z,1001
2017-08-14T04:00:56.235Z,1002
2017-08-14T04:02:04.075Z,1003
2017-08-14T04:03:11.550Z,1002
2017-08-14T04:04:19.027Z,1002
2017-08-14T04:05:26.515Z,1002
2017-08-14T04:06:33.990Z,1003
2017-08-14T04:07:41.820Z,1003
2017-08-14T04:08:49.304Z,1002
2017-08-14T04:09:56.456Z,1002
2017-08-14T04:11:03.607Z,1002
2017-08-14T04:12:11.087Z,1003
2017-08-14T04:13:18.916Z,1003
2017-08-14T04:14:26.389Z,1002
2017-08-14T04:15:33.868Z,1002
2017-08-14T04:16:41.367Z,1002
2017-08-14T04:17:48.849Z,1002
2017-08-14T04:18:56.677Z,1002
2017-08-14T04:20:04.154Z,1002
2017-08-14T04:21:11.632Z,1003
2017-08-14T04:22:19.114Z,1002
2017-08-14T04:23:26.259Z,1002
2017-08-14T04:24:33.719Z,1002
2017-08-14T04:25:41.199Z,1002
2017-08-14T04:26:48.331Z,1002
2017-08-14T04:27:55.815Z,1002
2017-08-14T04:29:03.295Z,1002
2017-08-14T04:30:11.124Z,1003
2017-08-14T04:31:18.603Z,1003
2017-08-14T04:32:25.752Z,1002
2017-08-14T04:33:33.251Z,1002
2017-08-14T04:34:40.403Z,1001
2017-08-14T04:35:47.857Z,1002
2017-08-14T04:36:55.008Z,1002
2017-08-14T04:38:02.166Z,1002
2017-08-14T04:39:09.645Z,1002
2017-08-14T04:40:17.128Z,1002
2017-08-14T04:41:24.622Z,1002
2017-08-14T04:42:32.098Z,1002
2017-08-14T04:43:39.582Z,1002
2017-08-14T04:44:47.057Z,1002
2017-08-14T04:45:54.221Z,1002
2017-08-14T04:47:02.048Z,1002
2017-08-14T04:48:09.200Z,1001
2017-08-14T04:49:16.680Z,1002
2017-08-14T04:50:24.153Z,1001
2017-08-14T04:51:31.637Z,1002
2017-08-14T04:52:39.465Z,1002
2017-08-14T04:53:46.944Z,1002
2017-08-14T04:54:54.423Z,1002
2017-08-14T04:56:01.577Z,1002
2017-08-14T04:57:09.060Z,1001
2017-08-14T04:58:16.838Z,1001
2017-08-14T04:59:24.318Z,1001
2017-08-14T05:00:31.798Z,1001
2017-08-14T05:01:38.951Z,1001
2017-08-14T05:02:46.429Z,1001
2017-08-14T05:03:54.213Z,1001
2017-08-14T05:05:01.690Z,1001
2017-08-14T05:06:09.174Z,1001
2017-08-14T05:07:16.651Z,1001
2017-08-14T05:08:24.122Z,1001
2017-08-14T05:09:31.651Z,1001
2017-08-14T05:10:38.809Z,1001
2017-08-14T05:11:46.929Z,1001
2017-08-14T05:12:54.417Z,1001
2017-08-14T05:14:01.904Z,1002
2017-08-14T05:15:09.688Z,1001
2017-08-14T05:16:17.171Z,1002
2017-08-14T05:17:24.655Z,1000
2017-08-14T05:18:32.135Z,1001
2017-08-14T05:19:39.617Z,1001
2017-08-14T05:20:47.098Z,1002
2017-08-14T05:21:54.580Z,1001
2017-08-14T05:23:02.062Z,1001
2017-08-14T05:24:09.541Z,1002
2017-08-14T05:25:17.018Z,1001
2017-08-14T05:26:24.802Z,1001
2017-08-14T05:27:32.281Z,1001
2017-08-14T05:28:39.762Z,1002
2017-08-14T05:29:47.244Z,1001
2017-08-14T05:31:09.319Z,1001
2017-08-14T05:32:17.095Z,1001
2017-08-14T05:33:24.575Z,1001
2017-08-14T05:34:32.111Z,1001
2017-08-14T05:35:39.592Z,1002
2017-08-14T05:36:47.080Z,1001
2017-08-14T05:37:54.568Z,1002
2017-08-14T05:39:01.064Z,1001
2017-08-14T05:40:08.542Z,1001
2017-08-14T05:41:16.025Z,1000
2017-08-14T05:42:23.506Z,1001
2017-08-14T05:43:31.283Z,1001
2017-08-14T05:44:38.760Z,1001
2017-08-14T05:46:00.822Z,1001
2017-08-14T05:47:07.989Z,1000
2017-08-14T05:48:15.474Z,1001
2017-08-14T05:49:23.253Z,1001
2017-08-14T05:50:30.408Z,1002
2017-08-14T05:51:37.882Z,1001
2017-08-14T05:52:45.363Z,1001
2017-08-14T05:53:52.840Z,1002
2017-08-14T05:55:00.314Z,1001
2017-08-14T05:56:07.790Z,1001
2017-08-14T05:57:15.269Z,1002
2017-08-14T05:58:22.750Z,1002
2017-08-14T05:59:30.235Z,1001
2017-08-14T06:00:38.022Z,1002
2017-08-14T06:01:45.173Z,1001
2017-08-14T06:02:52.654Z,1002
2017-08-14T06:04:00.131Z,1001
2017-08-14T06:05:07.612Z,1002
2017-08-14T06:06:15.060Z,1002
2017-08-14T06:07:22.537Z,1002
2017-08-14T06:08:30.014Z,1001
2017-08-14T06:09:37.505Z,1001
2017-08-14T06:10:44.988Z,1002
2017-08-14T06:11:52.767Z,1002
2017-08-14T06:12:59.958Z,1002
2017-08-14T06:14:07.440Z,1002
2017-08-14T06:15:14.920Z,1002
2017-08-14T06:16:22.080Z,1002
2017-08-14T06:17:29.911Z,1001
2017-08-14T06:18:37.391Z,1002
2017-08-14T06:19:44.869Z,1002
2017-08-14T06:20:52.348Z,1001
2017-08-14T06:21:59.847Z,1002
2017-08-14T06:23:07.628Z,1002
2017-08-14T06:24:15.100Z,1002
2017-08-14T06:25:22.586Z,1001
2017-08-14T06:26:30.069Z,1002
2017-08-14T06:27:37.549Z,1001
2017-08-14T06:28:45.379Z,1002
2017-08-14T06:29:52.877Z,1002
2017-08-14T06:31:00.025Z,1002
2017-08-14T06:32:07.192Z,1002
2017-08-14T06:33:14.920Z,1002
2017-08-14T06:34:22.749Z,1002
2017-08-14T06:35:30.141Z,1001
2017-08-14T06:36:37.624Z,1002
2017-08-14T06:37:45.111Z,1001
2017-08-14T06:38:52.589Z,1002
2017-08-14T06:40:00.415Z,1002
2017-08-14T06:41:07.898Z,1002
2017-08-14T06:42:15.392Z,1002
2017-08-14T06:43:22.900Z,1002
2017-08-14T06:44:30.382Z,1001
2017-08-14T06:45:38.169Z,1002
2017-08-14T06:46:45.319Z,1002
2017-08-14T06:47:52.801Z,1002
2017-08-14T06:49:00.288Z,1001
2017-08-14T06:50:07.769Z,1002
2017-08-14T06:51:15.605Z,1002
2017-08-14T06:52:22.769Z,1002
2017-08-14T06:53:29.924Z,1002
2017-08-14T06:54:37.403Z,1001
2017-08-14T06:55:44.566Z,1002
2017-08-14T06:56:52.049Z,1001
2017-08-14T06:57:59.543Z,1001
2017-08-14T06:59:07.337Z,1002
2017-08-14T07:00:14.868Z,1002
2017-08-14T07:01:22.347Z,1001
2017-08-14T07:02:29.830Z,1002
2017-08-14T07:03:36.970Z,1001
2017-08-14T07:04:44.780Z,1001
2017-08-14T07:05:52.258Z,1002
2017-08-14T07:06:59.742Z,1002
2017-08-14T07:08:07.489Z,1001
2017-08-14T07:09:14.973Z,1002
2017-08-14T07:10:22.762Z,1002
2017-08-14T07:11:29.932Z,1002
2017-08-14T07:12:37.098Z,1001
2017-08-14T07:13:44.580Z,1001
2017-08-14T07:14:52.070Z,1001
2017-08-14T07:15:59.848Z,1001
2017-08-14T07:17:07.332Z,1001
2017-08-14T07:18:14.820Z,1002
2017-08-14T07:19:21.652Z,1002
2017-08-14T07:20:29.146Z,1002
2017-08-14T07:21:36.934Z,1002
2017-08-14T07:22:44.421Z,1002
2017-08-14T07:23:51.908Z,1002
2017-08-14T07:24:59.066Z,1002
2017-08-14T07:26:06.540Z,1002
2017-08-14T07:27:14.328Z,1002
2017-08-14T07:28:21.812Z,1001
2017-08-14T07:29:29.313Z,1002
2017-08-14T07:30:36.801Z,1001
2017-08-14T07:31:44.284Z,1002
2017-08-14T07:32:51.740Z,1001
2017-08-14T07:33:58.898Z,1002
2017-08-14T07:35:06.394Z,1002
2017-08-14T07:36:13.875Z,1002
2017-08-14T07:37:21.366Z,1002
2017-08-14T07:38:29.153Z,1002
2017-08-14T07:39:36.638Z,1002
2017-08-14T07:40:43.781Z,1001
2017-08-14T07:41:51.266Z,1001
2017-08-14T07:42:59.653Z,1001
2017-08-14T07:44:06.951Z,1002
2017-08-14T07:45:14.446Z,1002
2017-08-14T07:46:21.937Z,1001
2017-08-14T07:47:29.121Z,1001
2017-08-14T07:48:36.612Z,1001
2017-08-14T07:49:44.397Z,1002
2017-08-14T07:50:51.879Z,1001
2017-08-14T07:51:59.361Z,1002
2017-08-14T07:53:06.872Z,1001
2017-08-14T07:54:14.354Z,1001
2017-08-14T07:55:22.149Z,1001
2017-08-14T07:56:29.299Z,1002
2017-08-14T07:57:36.783Z,1002
2017-08-14T07:58:44.285Z,1001
2017-08-14T07:59:51.772Z,1002
2017-08-14T08:00:59.237Z,1002
2017-08-14T08:02:06.728Z,1002
2017-08-14T08:03:14.218Z,1002
2017-08-14T08:04:21.701Z,1002
2017-08-14T08:05:29.188Z,1002
2017-08-14T08:06:36.978Z,1002
2017-08-14T08:07:44.140Z,1002
2017-08-14T08:08:51.290Z,1002
2017-08-14T08:09:58.783Z,1002
2017-08-14T08:11:06.277Z,1002
2017-08-14T08:12:14.066Z,1002
2017-08-14T08:13:21.256Z,1002
2017-08-14T08:14:28.744Z,1002
2017-08-14T08:15:36.238Z,1002
2017-08-14T08:16:43.394Z,1002
2017-08-14T08:17:50.877Z,1002
2017-08-14T08:18:58.387Z,1002
2017-08-14T08:20:05.554Z,1002
2017-08-14T08:21:13.388Z,1003
2017-08-14T08:22:20.554Z,1003
2017-08-14T08:23:28.055Z,1002
2017-08-14T08:24:35.533Z,1002
2017-08-14T08:25:42.693Z,1002
2017-08-14T08:26:50.485Z,1002
2017-08-14T08:27:57.638Z,1002
2017-08-14T08:29:05.124Z,1001
2017-08-14T08:30:12.639Z,1002
2017-08-14T08:31:19.799Z,1002
2017-08-14T08:32:27.645Z,1002
2017-08-14T08:33:34.820Z,1001
2017-08-14T08:34:42.303Z,1001
2017-08-14T08:35:49.805Z,1002
2017-08-14T08:36:57.282Z,1002
2017-08-14T08:38:04.781Z,1002
2017-08-14T08:39:11.934Z,1002
2017-08-14T08:40:19.096Z,1002
2017-08-14T08:41:26.584Z,1002
2017-08-14T08:42:34.075Z,1001
2017-08-14T08:43:41.920Z,1001
2017-08-14T08:44:49.408Z,1001
2017-08-14T08:45:56.894Z,1001
2017-08-14T08:47:04.382Z,1001
2017-08-14T08:48:11.876Z,1002
2017-08-14T08:49:19.334Z,1002
2017-08-14T08:50:26.827Z,1002
2017-08-14T08:51:34.312Z,1001
2017-08-14T08:52:41.961Z,1001
2017-08-14T08:53:49.132Z,1001
2017-08-14T08:54:56.643Z,1001
2017-08-14T08:56:04.165Z,1002
2017-08-14T08:57:11.657Z,1001
2017-08-14T08:58:19.179Z,1001
2017-08-14T08:59:26.665Z,1001
2017-08-14T09:00:34.151Z,1001
2017-08-14T09:01:41.641Z,1002
2017-08-14T09:02:49.134Z,1002
2017-08-14T09:03:56.648Z,1002
2017-08-14T09:05:04.471Z,1001
2017-08-14T09:06:11.637Z,1001
2017-08-14T09:07:19.119Z,1001
2017-08-14T09:08:26.613Z,1001
2017-08-14T09:09:34.106Z,1001
2017-08-14T09:10:41.245Z,1001
2017-08-14T09:11:48.728Z,1001
2017-08-14T09:12:56.217Z,1001
2017-08-14T09:14:03.709Z,1001
2017-08-14T09:15:11.224Z,1001
2017-08-14T09:16:19.068Z,1001
2017-08-14T09:17:26.561Z,1001
2017-08-14T09:18:34.051Z,1001
2017-08-14T09:19:41.538Z,1001
2017-08-14T09:20:49.038Z,1001
2017-08-14T09:21:56.874Z,1001
2017-08-14T09:23:04.362Z,1001
2017-08-14T09:24:11.854Z,1002
2017-08-14T09:25:19.363Z,1001
2017-08-14T09:26:26.845Z,1001
2017-08-14T09:27:34.010Z,1001
2017-08-14T09:28:41.173Z,1001
2017-08-14T09:29:48.654Z,1001
2017-08-14T09:30:56.149Z,1001
2017-08-14T09:32:03.639Z,1001
2017-08-14T09:33:11.474Z,1000
2017-08-14T09:34:19.021Z,1001
2017-08-14T09:35:26.543Z,1001
2017-08-14T09:36:34.037Z,1001
2017-08-14T09:37:41.534Z,1001
2017-08-14T09:38:49.340Z,1001
2017-08-14T09:39:56.841Z,1001
2017-08-14T09:41:04.326Z,1000
2017-08-14T09:42:11.821Z,1000
2017-08-14T09:43:19.337Z,1000
2017-08-14T09:44:27.141Z,1000
2017-08-14T09:45:34.635Z,1000
2017-08-14T09:46:42.120Z,1001
2017-08-14T09:47:49.603Z,1000
2017-08-14T09:48:56.758Z,1000
2017-08-14T09:50:04.552Z,1001
2017-08-14T09:51:11.717Z,1001
2017-08-14T09:52:19.211Z,1000
2017-08-14T09:53:26.697Z,1000
2017-08-14T09:54:34.187Z,1000
2017-08-14T09:55:42.010Z,1000
2017-08-14T09:56:49.179Z,1001
2017-08-14T09:57:56.332Z,1001
2017-08-14T09:59:03.815Z,1001
2017-08-14T10:00:10.967Z,1000
2017-08-14T10:01:18.431Z,1000
2017-08-14T10:02:25.585Z,1000
2017-08-14T10:03:33.079Z,1001
2017-08-14T10:04:40.570Z,1001
2017-08-14T10:05:48.062Z,1000
2017-08-14T10:06:55.849Z,1000
2017-08-14T10:08:03.344Z,999
2017-08-14T10:09:10.835Z,1000
2017-08-14T10:10:18.323Z,1000
2017-08-14T10:11:25.810Z,1000
2017-08-14T10:12:33.602Z,1000
2017-08-14T10:13:41.092Z,1000
2017-08-14T10:14:48.585Z,1000
2017-08-14T10:15:56.083Z,999
2017-08-14T10:17:03.592Z,999
2017-08-14T10:18:11.386Z,998
2017-08-14T10:19:18.905Z,999
2017-08-14T10:20:26.406Z,1000
2017-08-14T10:21:33.910Z,1000
2017-08-14T10:22:41.399Z,1000
2017-08-14T10:23:48.865Z,1001
2017-08-14T10:24:56.351Z,1001
2017-08-14T10:26:03.839Z,1001
2017-08-14T10:27:11.335Z,1001
2017-08-14T10:28:18.494Z,1000
2017-08-14T10:29:26.294Z,1001
2017-08-14T10:30:33.790Z,1001
2017-08-14T10:31:41.281Z,1000
2017-08-14T10:32:48.770Z,1000
2017-08-14T10:33:55.939Z,1000
2017-08-14T10:35:03.411Z,998
2017-08-14T10:36:10.899Z,1000
2017-08-14T10:37:18.068Z,1000
2017-08-14T10:38:25.563Z,999
2017-08-14T10:39:33.054Z,999
2017-08-14T10:40:40.840Z,998
2017-08-14T10:41:48.337Z,998
2017-08-14T10:42:55.819Z,998
2017-08-14T10:44:03.318Z,998
2017-08-14T10:45:13.919Z,998
2017-08-14T10:46:21.405Z,998
2017-08-14T10:47:28.901Z,998
2017-08-14T10:48:36.398Z,999
2017-08-14T10:49:43.561Z,998
2017-08-14T10:50:51.054Z,998
2017-08-14T10:51:58.840Z,998
2017-08-14T10:53:06.335Z,998
2017-08-14T10:54:13.829Z,999
2017-08-14T10:55:21.316Z,998
2017-08-14T10:56:28.803Z,1000
2017-08-14T10:57:36.613Z,999
2017-08-14T10:58:44.101Z,999
2017-08-14T10:59:51.594Z,1000
2017-08-14T11:00:59.090Z,1000
2017-08-14T11:02:06.593Z,999
2017-08-14T11:03:14.087Z,999
2017-08-14T11:04:21.577Z,999
2017-08-14T11:05:29.061Z,999
2017-08-14T11:06:36.551Z,999
2017-08-14T11:07:43.669Z,999
2017-08-14T11:08:51.132Z,1000
2017-08-14T11:09:59.121Z,1000
2017-08-14T11:11:06.294Z,1000
2017-08-14T11:12:13.789Z,1000
2017-08-14T11:13:21.281Z,1001
2017-08-14T11:14:29.305Z,1000
2017-08-14T11:15:36.794Z,1000
2017-08-14T11:16:44.287Z,1000
2017-08-14T11:17:51.785Z,1000
2017-08-14T11:18:59.326Z,1000
2017-08-14T11:20:06.488Z,1000
2017-08-14T11:21:13.958Z,999
2017-08-14T11:22:21.464Z,999
2017-08-14T11:23:29.909Z,998
2017-08-14T11:24:37.405Z,998
2017-08-14T11:25:44.895Z,998
2017-08-14T11:26:52.680Z,998
2017-08-14T11:28:00.166Z,998
2017-08-14T11:29:07.331Z,998
2017-08-14T11:30:14.825Z,998
2017-08-14T11:31:22.313Z,998
2017-08-14T11:32:30.103Z,999
2017-08-14T11:33:37.265Z,999
2017-08-14T11:34:44.416Z,999
2017-08-14T11:35:51.899Z,999
2017-08-14T11:36:59.401Z,1000
2017-08-14T11:38:06.895Z,1001
2017-08-14T11:39:14.384Z,1000
2017-08-14T11:40:21.878Z,1001
2017-08-14T11:41:29.360Z,1001
2017-08-14T11:42:36.518Z,1001
2017-08-14T11:43:44.314Z,1001
2017-08-14T11:44:51.813Z,1001
2017-08-14T11:45:59.299Z,1000
2017-08-14T11:47:06.797Z,1000
2017-08-14T11:48:14.283Z,1000
2017-08-14T11:49:22.085Z,999
2017-08-14T11:50:29.236Z,999
2017-08-14T11:51:36.724Z,999
2017-08-14T11:52:44.213Z,998
2017-08-14T11:53:51.717Z,998
2017-08-14T11:54:59.206Z,998
2017-08-14T11:56:06.400Z,998
2017-08-14T11:57:13.888Z,999
2017-08-14T11:58:21.050Z,998
2017-08-14T11:59:28.540Z,1000
2017-08-14T12:00:36.331Z,1000
2017-08-14T12:01:43.491Z,1001
2017-08-14T12:02:50.984Z,1001
2017-08-14T12:03:58.475Z,1001
2017-08-14T12:05:05.970Z,1001
2017-08-14T12:06:13.482Z,1001
2017-08-14T12:07:20.658Z,1000
2017-08-14T12:08:28.141Z,1000
2017-08-14T12:09:35.627Z,1000
2017-08-14T12:10:43.117Z,1000
2017-08-14T12:11:50.958Z,1000
2017-08-14T12:13:13.836Z,1000
2017-08-14T12:14:21.031Z,999
2017-08-14T12:15:28.520Z,998
2017-08-14T12:16:35.676Z,999
2017-08-14T12:17:43.183Z,999
2017-08-14T12:18:50.678Z,1001
2017-08-14T12:19:57.845Z,1002
2017-08-14T12:21:05.334Z,1003
2017-08-14T12:22:12.524Z,1002
2017-08-14T12:23:20.372Z,1000
2017-08-14T12:24:27.855Z,1000
2017-08-14T12:25:35.351Z,999
2017-08-14T12:26:42.841Z,1000
2017-08-14T12:27:51.523Z,1001
2017-08-14T12:28:59.368Z,1001
2017-08-14T12:30:06.856Z,1002
2017-08-14T12:31:14.349Z,1003
2017-08-14T12:32:21.863Z,1004
2017-08-14T12:33:29.343Z,1004
2017-08-14T12:34:37.183Z,1005
2017-08-14T12:35:44.675Z,1005
2017-08-14T12:36:52.168Z,1005
2017-08-14T12:37:59.664Z,1004
2017-08-14T12:39:07.156Z,1002
2017-08-14T12:40:15.001Z,1002
2017-08-14T12:41:22.492Z,1001
2017-08-14T12:42:29.980Z,1000
2017-08-14T12:43:37.468Z,998
2017-08-14T12:44:44.965Z,999
2017-08-14T12:45:52.752Z,1000
2017-08-14T12:47:00.240Z,999
2017-08-14T12:48:07.403Z,1001
2017-08-14T12:49:14.901Z,1002
2017-08-14T12:50:22.392Z,1002
2017-08-14T12:51:30.248Z,1001
2017-08-14T12:52:37.741Z,1000
2017-08-14T12:53:45.235Z,999
2017-08-14T12:54:52.733Z,999
2017-08-14T12:56:00.254Z,998
2017-08-14T12:57:08.041Z,998
2017-08-14T12:58:15.538Z,999
2017-08-14T12:59:23.027Z,999
2017-08-14T13:00:30.195Z,999
2017-08-14T13:01:37.683Z,998
2017-08-14T13:02:45.149Z,1000
2017-08-14T13:03:52.646Z,1000
2017-08-14T13:04:59.808Z,1000
2017-08-14T13:06:07.301Z,1000
2017-08-14T13:07:14.798Z,1001
2017-08-14T13:08:24.037Z,1001
2017-08-14T13:09:31.526Z,1002
2017-08-14T13:10:39.015Z,1002
2017-08-14T13:11:46.181Z,1000
2017-08-14T13:12:53.351Z,1001
2017-08-14T13:14:00.837Z,1001
2017-08-14T13:15:08.330Z,999
2017-08-14T13:16:15.820Z,999
2017-08-14T13:17:22.995Z,999
2017-08-14T13:18:30.483Z,998
2017-08-14T13:19:37.615Z,998
2017-08-14T13:20:45.104Z,999
2017-08-14T13:21:52.595Z,999
2017-08-14T13:23:00.088Z,999
2017-08-14T13:24:07.578Z,1000
2017-08-14T13:25:15.044Z,1001
2017-08-14T13:26:22.215Z,1001
2017-08-14T13:27:29.394Z,1000
2017-08-14T13:28:36.885Z,1000
2017-08-14T13:29:44.384Z,999
2017-08-14T13:30:52.171Z,1001
2017-08-14T13:31:59.659Z,1001
2017-08-14T13:33:07.152Z,1000
2017-08-14T13:34:14.654Z,1002
2017-08-14T13:35:22.155Z,1003
2017-08-14T13:36:29.618Z,1002
2017-08-14T13:37:37.121Z,1002
2017-08-14T13:38:44.613Z,1002
2017-08-14T13:39:52.104Z,1002
2017-08-14T13:40:59.601Z,1004
2017-08-14T13:42:07.095Z,1002
2017-08-14T13:43:14.586Z,1001
2017-08-14T13:44:22.083Z,1000
2017-08-14T13:45:29.254Z,1000
2017-08-14T13:46:37.052Z,1000
2017-08-14T13:47:44.540Z,1000
2017-08-14T13:48:51.719Z,1000
2017-08-14T13:49:59.214Z,1001
2017-08-14T13:51:06.722Z,1000
2017-08-14T13:52:14.186Z,1000
2017-08-14T13:53:21.680Z,1002
2017-08-14T13:54:29.178Z,1003
2017-08-14T13:55:36.664Z,1005
2017-08-14T13:56:44.167Z,1006
2017-08-14T13:57:51.640Z,1006
2017-08-14T13:58:58.471Z,1006
2017-08-14T14:00:05.697Z,1005
2017-08-14T14:01:12.870Z,1005
2017-08-14T14:02:20.379Z,1004
2017-08-14T14:03:28.175Z,1004
2017-08-14T14:04:35.354Z,1003
2017-08-14T14:05:42.848Z,1002
2017-08-14T14:06:50.372Z,1003
2017-08-14T14:07:57.874Z,1003
2017-08-14T14:09:06.203Z,1002
2017-08-14T14:10:13.710Z,1004
2017-08-14T14:11:21.207Z,1004
2017-08-14T14:12:28.692Z,1005
2017-08-14T14:13:36.183Z,1005
2017-08-14T14:14:44.026Z,1005
2017-08-14T14:15:51.517Z,1005
2017-08-14T14:16:58.684Z,1004
2017-08-14T14:18:05.843Z,1004
2017-08-14T14:19:13.333Z,1004
2017-08-14T14:20:21.176Z,1004
2017-08-14T14:21:28.679Z,1004
2017-08-14T14:22:36.198Z,1003
2017-08-14T14:23:43.691Z,1002
2017-08-14T14:24:50.860Z,1001
2017-08-14T14:25:58.706Z,1001
2017-08-14T14:27:06.197Z,1001
2017-08-14T14:28:13.689Z,1001
2017-08-14T14:29:21.181Z,1001
2017-08-14T14:30:28.684Z,1002
2017-08-14T14:31:36.528Z,1003
2017-08-14T14:32:44.028Z,1004
2017-08-14T14:33:51.525Z,1004
2017-08-14T14:34:59.021Z,1005
2017-08-14T14:36:06.510Z,1005
2017-08-14T14:37:14.348Z,1005
2017-08-14T14:38:21.844Z,1005
2017-08-14T14:39:29.005Z,1006
2017-08-14T14:40:36.498Z,1004
2017-08-14T14:41:43.990Z,1002
2017-08-14T14:42:51.459Z,1001
2017-08-14T14:43:58.947Z,1001
2017-08-14T14:45:06.440Z,1001
2017-08-14T14:46:13.933Z,1001
2017-08-14T14:47:21.426Z,1001
2017-08-14T14:48:28.890Z,1002
2017-08-14T14:49:36.389Z,1001
2017-08-14T14:50:43.885Z,1002
2017-08-14T14:51:51.384Z,1001
2017-08-14T14:52:58.873Z,1003
2017-08-14T14:54:06.663Z,1003
2017-08-14T14:55:14.161Z,1002
2017-08-14T14:56:21.645Z,1005
2017-08-14T14:57:29.141Z,1005
2017-08-14T14:58:36.638Z,1004
2017-08-14T14:59:45.879Z,1004
2017-08-14T15:00:53.376Z,1005
2017-08-14T15:02:00.867Z,1003
2017-08-14T15:03:08.373Z,1003